Friday, January 19, 2018, 10:38 AM EST
Back to Local

KOXC, Oxford, Waterbury-oxford Airport

Location: Oxford, CT, United States Lat: 41.483
Local Time: 10:38 AM EST (15:38 GMT) Lon: -73.133
Time Zone: US/Eastern Elev: 725 ft

Show me the last for .
Show Coded

Time T Td Feel RH Dir Speed Gust Alt SLP Vis Weather Sky Remarks
2018-01-19 09:51 23 14 15 67 270° 7 - 30.01 30.09 10 CLR None
2018-01-19 08:51 20 13 12 73 260° 6 - 30.02 30.09 10 CLR None
2018-01-19 07:51 14 11 8 87 270° 3 - 30.00 30.07 10 CLR None
2018-01-19 06:51 15 12 9 87 250° 3 - 29.99 30.07 10 CLR 6-hr Min Temp (7am): 12.0°F
6-hr Max Temp (7am): 17.1°F
2018-01-19 06:23 16 10 10 78 230° 3 - 29.99 - 10 FEW026 None
2018-01-19 05:51 15 12 - 87 - Calm - 29.99 30.06 10 BKN026 None
2018-01-19 04:59 14 12 6 92 240° 5 - 29.98 - 10 BKN028 None
2018-01-19 04:51 14 11 8 87 240° 3 - 29.98 30.05 10 SCT030 None
2018-01-19 03:51 14 11 8 87 270° 3 - 29.98 30.06 10 CLR None
2018-01-19 02:51 13 11 7 91 310° 3 - 29.98 30.05 10 CLR None
2018-01-19 01:51 16 12 10 84 300° 3 - 29.97 30.04 10 CLR None
2018-01-19 00:51 16 11 9 80 280° 5 - 29.98 30.05 10 CLR 6-hr Min Temp (1am): 16.0°F
6-hr Max Temp (1am): 21.0°F
2018-01-19 00:03 18 12 - 78 - Calm - 29.99 - 10 SCT028 None
2018-01-18 23:51 19 13 - 76 - Calm - 29.99 30.06 10 BKN028 24-hr Min Temp (12am): 9.0°F
24-hr Max Temp (12am): 27.0°F
2018-01-18 23:12 19 14 14 79 280° 3 - 30.01 - 10 OVC028 None
2018-01-18 22:51 20 13 15 73 310° 3 - 30.01 30.09 10 OVC030 None
2018-01-18 21:51 17 12 12 80 300° 3 - 30.02 30.09 10 CLR None
2018-01-18 20:51 17 12 12 80 310° 3 - 30.00 30.07 10 CLR None
2018-01-18 19:51 19 13 - 76 - Calm - 29.98 30.06 10 CLR None
2018-01-18 18:51 21 13 13 70 330° 6 - 29.96 30.03 10 CLR 6-hr Min Temp (7pm): 21.0°F
6-hr Max Temp (7pm): 27.0°F
2018-01-18 17:51 23 13 11 64 340° 13 - 29.93 30.00 10 CLR None
2018-01-18 16:51 24 14 10 64 330° 10 20 29.90 29.98 10 CLR None
2018-01-18 15:51 26 14 11 59 320° 14 24 29.87 29.94 10 CLR None
2018-01-18 14:51 26 12 10 54 320° 14 26 29.87 29.94 10 CLR None
2018-01-18 13:51 27 13 14 54 330° 10 18 29.88 29.95 10 CLR None
2018-01-18 12:51 27 14 13 57 340° 14 21 29.89 29.96 10 CLR Pressure falling rapidly
1-hr Precip Total: Trace
6-hr Precip Total (1pm): 0.00"
6-hr Min Temp (1pm): 9.0°F
6-hr Max Temp (1pm): 27.0°F
2018-01-18 11:51 26 14 17 59 300° 9 - 29.93 30.00 10 CLR None
2018-01-18 10:51 24 14 15 64 330° 8 - 29.97 30.04 10 CLR None

Support USWX by starting your Amazon purchase here.